MET'MAP v2.0
soon released !

Expected late october,
this new version will be
more efficient, smarter,
and hosted on a brand new
server x3 powerfull...
...and still free !


Not compatible ?
Try the mobile version !

LOG IN : | Subscribe | Disclaimer | Who is Orbifly ? |
ICAO code :

TAF - EPRZ Rzeszow-Jasionka - 27 May 2020 18:49 UTC - Data Source NOAA   


- Airport Elevation : 675 ft
- IATA code : RZE
- No reported NOTAMs.


EPRZ - Rzeszow-Jasionka

Latest METAR recorded : 2015/08/11 08:00 EPRZ 110800Z 01001KT CAVOK 29/19 Q1016
TAF TAF EPRZ
Valid from the 27 at 12:00 until the 28 at 12:00 UTC


271130Z 2712/2812 35010KT 9999 BKN020
TEMPO 2712/2721 36020G35KT 2500 TSRAGR BKN014CB
BECMG 2721/2724 VRB02KT
PROB40
TEMPO 2800/2805 3000 BR
BECMG 2805/2808 33012KT
TEMPO 2810/2812 VRB15G25KT BKN020CB

Source NOAA


MET'MAP, your aeronautical weather chart ! - Copyright ORBIFLY December 2007

Programming & Development : Alexandra Zaïnal
Co-Developer : Marc-Olivier Méhu
Technical & hardware support : Manuel Goepfert
Concept & Financing : Baudouin d'Aumeries